Time;durP1;ratioP1;P1;durP2;ratioP2;P2;SDS_P1;SDS_P2;PMS_P1;PMS_P2;Temp;Humidity;BMP_temperature;BMP_pressure;BME280_temperature;BME280_humidity;BME280_pressure;Samples;Min_cycle;Max_cycle;Signal;HPM_P1;HPM_P2
2023/07/23 00:00:30;;;;;;;11.27;3.53;;;20.40;74.00;;;;;;5087579;28;20418;-85
2023/07/23 00:02:55;;;;;;;6.07;3.08;;;20.30;74.00;;;;;;5084243;28;20032;-86
2023/07/23 00:05:23;;;;;;;9.55;3.20;;;20.30;74.00;;;;;;5084098;28;20385;-85
2023/07/23 00:07:54;;;;;;;6.60;3.20;;;20.30;74.10;;;;;;5077535;28;20123;-85
2023/07/23 00:10:20;;;;;;;8.02;3.95;;;20.40;74.00;;;;;;5087413;28;20065;-85
2023/07/23 00:12:46;;;;;;;5.20;2.85;;;20.40;74.00;;;;;;5083331;28;20380;-86
2023/07/23 00:15:14;;;;;;;3.92;2.72;;;20.10;73.90;;;;;;5084313;28;20020;-85
2023/07/23 00:17:41;;;;;;;5.38;2.90;;;20.30;74.10;;;;;;5086161;28;20020;-84
2023/07/23 00:20:09;;;;;;;9.88;3.45;;;20.30;74.20;;;;;;5082748;28;20388;-86
2023/07/23 00:22:35;;;;;;;6.85;3.42;;;20.30;74.20;;;;;;5079537;28;20016;-86
2023/07/23 00:25:01;;;;;;;6.20;3.35;;;20.30;74.20;;;;;;5079127;28;20031;-86
2023/07/23 00:27:27;;;;;;;6.38;3.17;;;20.30;74.10;;;;;;5084736;28;20024;-86
2023/07/23 00:29:52;;;;;;;5.35;3.13;;;20.30;74.10;;;;;;5081488;28;21899;-83
2023/07/23 00:32:18;;;;;;;5.63;3.10;;;20.40;74.20;;;;;;5081688;28;20031;-86
2023/07/23 00:34:44;;;;;;;7.93;3.05;;;20.30;74.20;;;;;;5081280;28;20110;-83
2023/07/23 00:37:09;;;;;;;10.52;3.30;;;20.30;75.00;;;;;;5084178;28;20024;-83
2023/07/23 00:39:35;;;;;;;7.88;2.42;;;20.30;74.20;;;;;;5083528;28;20012;-86
2023/07/23 00:42:01;;;;;;;8.13;3.30;;;20.30;74.20;;;;;;5102669;28;20150;-86
2023/07/23 00:44:26;;;;;;;8.45;2.72;;;20.30;74.30;;;;;;5081794;28;20473;-84
2023/07/23 00:46:54;;;;;;;5.30;2.45;;;20.30;74.20;;;;;;5080501;28;20062;-87
2023/07/23 00:49:20;;;;;;;3.85;2.20;;;20.30;74.30;;;;;;5085691;28;20056;-86
2023/07/23 00:51:46;;;;;;;8.52;3.00;;;20.30;74.30;;;;;;5091438;28;20055;-85
2023/07/23 00:54:13;;;;;;;3.88;2.80;;;20.30;74.30;;;;;;5079766;28;20044;-86
2023/07/23 00:56:40;;;;;;;3.00;2.03;;;20.30;74.20;;;;;;5091203;28;20031;-87
2023/07/23 00:59:07;;;;;;;4.70;2.53;;;20.30;74.20;;;;;;5080258;28;20021;-85
2023/07/23 01:01:33;;;;;;;3.90;2.50;;;20.30;74.30;;;;;;5083553;28;20021;-86
2023/07/23 01:03:58;;;;;;;7.28;2.20;;;20.30;74.30;;;;;;5088923;28;20032;-86
2023/07/23 01:06:27;;;;;;;3.63;2.38;;;20.30;74.20;;;;;;5091703;28;20032;-86
2023/07/23 01:08:56;;;;;;;7.63;2.50;;;20.30;74.30;;;;;;5081937;28;20391;-87
2023/07/23 01:11:23;;;;;;;9.90;2.25;;;20.30;74.20;;;;;;5085848;28;20020;-87
2023/07/23 01:13:51;;;;;;;6.32;2.50;;;20.30;74.20;;;;;;5082034;28;20050;-87
2023/07/23 01:16:17;;;;;;;7.22;2.58;;;20.30;74.20;;;;;;5092920;28;20032;-85
2023/07/23 01:18:44;;;;;;;4.93;2.72;;;20.30;74.20;;;;;;5092491;28;20023;-87
2023/07/23 01:21:10;;;;;;;8.15;2.50;;;20.30;74.20;;;;;;5086949;28;20020;-86
2023/07/23 01:23:36;;;;;;;3.58;2.22;;;20.30;74.20;;;;;;5084301;28;20028;-86
2023/07/23 01:26:03;;;;;;;5.50;2.50;;;20.30;74.20;;;;;;5081021;28;20012;-84
2023/07/23 01:28:29;;;;;;;3.65;2.50;;;20.30;74.10;;;;;;5101406;28;20449;-86
2023/07/23 01:30:55;;;;;;;7.05;2.35;;;20.30;74.10;;;;;;5082742;28;20115;-86
2023/07/23 01:33:22;;;;;;;5.85;2.53;;;20.30;74.20;;;;;;5088374;28;20039;-86
2023/07/23 01:35:52;;;;;;;5.75;2.47;;;20.30;74.20;;;;;;5102980;28;20027;-86
2023/07/23 01:38:18;;;;;;;3.47;2.42;;;20.30;74.10;;;;;;5085695;28;20031;-82
2023/07/23 01:40:45;;;;;;;4.10;2.42;;;20.30;74.10;;;;;;5086975;28;20028;-87
2023/07/23 01:43:11;;;;;;;3.20;2.20;;;20.30;74.10;;;;;;5082428;28;20021;-86
2023/07/23 01:45:40;;;;;;;3.97;2.22;;;20.30;74.10;;;;;;5087900;28;20027;-85
2023/07/23 01:48:06;;;;;;;4.70;2.70;;;20.30;74.10;;;;;;5086570;28;20039;-86
2023/07/23 01:50:32;;;;;;;9.68;2.35;;;20.30;74.20;;;;;;5089919;28;20027;-86
2023/07/23 01:52:58;;;;;;;4.15;2.58;;;20.30;74.20;;;;;;5089495;28;20020;-87
2023/07/23 01:55:23;;;;;;;3.72;2.47;;;20.20;74.10;;;;;;5088860;28;20101;-86
2023/07/23 01:57:49;;;;;;;6.47;2.53;;;20.30;74.20;;;;;;5087032;28;20073;-86
2023/07/23 02:00:15;;;;;;;5.35;2.72;;;20.30;74.20;;;;;;5085750;28;20027;-86
2023/07/23 02:02:40;;;;;;;3.47;2.22;;;20.20;74.20;;;;;;5078886;28;20028;-85
2023/07/23 02:05:06;;;;;;;6.10;2.63;;;20.20;74.20;;;;;;5089282;28;20021;-86
2023/07/23 02:07:32;;;;;;;3.72;2.25;;;20.20;74.10;;;;;;5089651;28;20238;-86
2023/07/23 02:09:58;;;;;;;3.72;2.22;;;20.20;74.20;;;;;;5087018;28;20016;-86
2023/07/23 02:12:23;;;;;;;3.45;2.10;;;20.20;74.30;;;;;;5085474;28;20576;-85
2023/07/23 02:14:49;;;;;;;6.40;2.72;;;20.20;74.20;;;;;;5089822;28;20035;-86
2023/07/23 02:17:14;;;;;;;4.28;2.20;;;20.20;74.20;;;;;;5087057;28;20028;-86
2023/07/23 02:19:40;;;;;;;8.25;2.10;;;20.20;74.20;;;;;;5087898;28;20048;-86
2023/07/23 02:22:06;;;;;;;9.82;2.33;;;20.20;74.20;;;;;;5086334;28;20017;-86
2023/07/23 02:24:32;;;;;;;3.40;2.10;;;20.20;74.20;;;;;;5100441;28;20024;-86
2023/07/23 02:26:58;;;;;;;2.92;1.95;;;20.20;74.10;;;;;;5087164;28;20078;-87
2023/07/23 02:29:23;;;;;;;6.88;2.25;;;20.20;74.10;;;;;;5087278;28;20059;-85
2023/07/23 02:31:49;;;;;;;3.35;2.10;;;20.20;74.20;;;;;;5088801;28;20469;-86
2023/07/23 02:34:14;;;;;;;4.85;2.47;;;20.20;74.10;;;;;;5085850;28;20025;-84
2023/07/23 02:36:40;;;;;;;3.95;2.30;;;20.20;74.10;;;;;;5087055;28;20025;-86
2023/07/23 02:39:06;;;;;;;4.60;2.15;;;20.20;74.10;;;;;;5085225;28;20021;-86
2023/07/23 02:41:32;;;;;;;3.65;2.00;;;20.20;74.20;;;;;;5087168;28;20024;-86
2023/07/23 02:43:57;;;;;;;10.93;3.22;;;20.20;74.20;;;;;;5086219;28;20023;-86
2023/07/23 02:46:23;;;;;;;5.88;2.65;;;20.20;74.20;;;;;;5086738;28;20041;-86
2023/07/23 02:48:49;;;;;;;5.93;2.70;;;20.20;74.20;;;;;;5087972;28;20036;-86
2023/07/23 02:51:15;;;;;;;7.07;2.33;;;20.20;74.30;;;;;;5100542;28;20398;-85
2023/07/23 02:53:40;;;;;;;4.00;2.42;;;20.20;74.30;;;;;;5085802;28;20013;-86
2023/07/23 02:56:06;;;;;;;5.97;2.63;;;20.20;74.30;;;;;;5088201;28;20104;-86
2023/07/23 02:58:31;;;;;;;5.55;2.28;;;20.20;74.30;;;;;;5087551;28;20101;-86
2023/07/23 03:00:57;;;;;;;2.95;2.28;;;20.20;74.30;;;;;;5090420;28;20035;-86
2023/07/23 03:03:24;;;;;;;6.30;2.60;;;20.20;74.30;;;;;;5086491;28;20020;-86
2023/07/23 03:05:50;;;;;;;6.50;2.35;;;20.20;74.30;;;;;;5087068;28;20020;-86
2023/07/23 03:08:15;;;;;;;4.35;2.38;;;20.20;74.30;;;;;;5083069;28;20503;-85
2023/07/23 03:10:42;;;;;;;3.08;2.10;;;20.20;74.30;;;;;;5089505;28;20028;-85
2023/07/23 03:13:08;;;;;;;4.22;1.80;;;20.20;74.40;;;;;;5085063;28;20081;-86
2023/07/23 03:15:34;;;;;;;5.75;2.50;;;20.20;74.30;;;;;;5084227;28;20346;-86
2023/07/23 03:18:01;;;;;;;3.53;2.42;;;20.20;74.30;;;;;;5086030;28;20020;-86
2023/07/23 03:20:27;;;;;;;3.58;2.13;;;20.10;74.30;;;;;;5087089;28;20031;-86
2023/07/23 03:22:52;;;;;;;4.85;2.15;;;20.10;74.30;;;;;;5083044;28;20020;-86
2023/07/23 03:25:18;;;;;;;2.55;2.20;;;20.20;74.30;;;;;;5080297;28;20051;-86
2023/07/23 03:27:44;;;;;;;4.50;2.40;;;20.10;74.20;;;;;;5089211;28;20384;-86
2023/07/23 03:30:10;;;;;;;4.45;2.35;;;20.10;74.20;;;;;;5083543;28;20016;-86
2023/07/23 03:32:36;;;;;;;3.33;2.42;;;20.20;74.30;;;;;;5084976;28;20095;-86
2023/07/23 03:35:02;;;;;;;4.50;2.60;;;20.10;74.20;;;;;;5089414;28;20024;-87
2023/07/23 03:37:28;;;;;;;4.00;2.35;;;20.20;74.30;;;;;;5080445;28;20062;-86
2023/07/23 03:39:54;;;;;;;3.80;2.22;;;20.10;74.20;;;;;;5091901;28;20024;-86
2023/07/23 03:42:20;;;;;;;5.38;2.08;;;20.10;74.20;;;;;;5088927;28;20017;-87
2023/07/23 03:44:45;;;;;;;2.85;1.85;;;20.10;74.10;;;;;;5085165;28;20025;-85
2023/07/23 03:47:19;;;;;;;6.70;1.90;;;20.10;74.20;;;;;;5087769;28;20035;-85
2023/07/23 03:49:48;;;;;;;6.78;2.25;;;20.10;74.20;;;;;;5091420;28;20035;-86
2023/07/23 03:52:14;;;;;;;7.15;1.92;;;20.10;74.20;;;;;;5090918;28;20043;-86
2023/07/23 03:54:40;;;;;;;4.68;2.65;;;20.10;74.10;;;;;;5100019;28;20124;-86
2023/07/23 03:57:06;;;;;;;3.03;1.92;;;20.10;74.20;;;;;;5088044;28;20103;-86
2023/07/23 03:59:37;;;;;;;4.90;2.50;;;20.10;74.20;;;;;;5081846;28;20028;-84
2023/07/23 04:02:03;;;;;;;3.58;1.95;;;20.10;74.20;;;;;;5086213;28;20016;-86
2023/07/23 04:04:28;;;;;;;4.00;2.20;;;20.10;74.20;;;;;;5089129;28;20016;-83
2023/07/23 04:06:54;;;;;;;8.10;1.70;;;20.10;74.20;;;;;;5083339;28;20050;-86
2023/07/23 04:09:20;;;;;;;4.00;2.60;;;20.10;74.30;;;;;;5078294;28;20028;-85
2023/07/23 04:11:46;;;;;;;4.43;2.35;;;20.10;74.20;;;;;;5085369;28;20074;-86
2023/07/23 04:14:12;;;;;;;3.53;1.83;;;20.10;74.20;;;;;;5078110;28;20028;-86
2023/07/23 04:16:37;;;;;;;4.43;2.47;;;20.10;74.20;;;;;;5095362;28;20023;-86
2023/07/23 04:19:03;;;;;;;3.47;2.33;;;20.10;74.20;;;;;;5088813;28;20054;-87
2023/07/23 04:21:30;;;;;;;5.65;2.78;;;20.10;74.20;;;;;;5087622;28;20054;-86
2023/07/23 04:23:57;;;;;;;4.10;2.35;;;20.10;74.30;;;;;;5097404;28;20016;-86
2023/07/23 04:26:25;;;;;;;3.13;2.05;;;20.10;74.30;;;;;;5080902;28;20384;-87
2023/07/23 04:28:51;;;;;;;2.95;1.95;;;20.10;74.30;;;;;;5081639;28;20478;-86
2023/07/23 04:31:17;;;;;;;3.80;2.00;;;20.10;74.30;;;;;;5079828;28;20042;-85
2023/07/23 04:33:43;;;;;;;3.55;2.10;;;20.10;74.40;;;;;;5077794;28;20017;-86
2023/07/23 04:36:09;;;;;;;5.43;2.30;;;20.10;74.40;;;;;;5098542;28;20024;-86
2023/07/23 04:38:35;;;;;;;3.58;2.20;;;20.10;74.50;;;;;;5086350;28;20016;-85
2023/07/23 04:41:00;;;;;;;5.68;2.53;;;20.10;74.50;;;;;;5080657;28;20151;-86
2023/07/23 04:43:26;;;;;;;6.00;2.47;;;20.10;74.50;;;;;;5081992;28;20104;-86
2023/07/23 04:45:51;;;;;;;4.03;1.98;;;20.10;74.50;;;;;;5081794;28;20032;-85
2023/07/23 04:48:17;;;;;;;3.75;2.22;;;20.10;74.60;;;;;;5081048;28;20496;-84
2023/07/23 04:50:43;;;;;;;4.65;2.15;;;20.10;74.70;;;;;;5084102;28;20480;-85
2023/07/23 04:53:09;;;;;;;4.68;2.70;;;20.10;74.70;;;;;;5085638;28;20105;-85
2023/07/23 04:55:35;;;;;;;3.67;2.20;;;20.10;75.00;;;;;;5083426;28;20019;-85
2023/07/23 04:58:00;;;;;;;3.45;2.08;;;20.10;74.70;;;;;;5081947;28;20020;-85
2023/07/23 05:00:27;;;;;;;5.75;2.30;;;20.10;74.70;;;;;;5083475;28;20021;-86
2023/07/23 05:02:52;;;;;;;4.65;2.72;;;20.10;74.90;;;;;;5083855;28;20074;-86
2023/07/23 05:05:18;;;;;;;2.42;1.90;;;20.10;74.90;;;;;;5082602;28;20016;-85
2023/07/23 05:07:44;;;;;;;6.82;2.60;;;20.10;74.90;;;;;;5084313;28;20060;-85
2023/07/23 05:10:10;;;;;;;4.20;2.30;;;19.80;73.90;;;;;;5082919;28;20020;-84
2023/07/23 05:12:35;;;;;;;6.80;2.50;;;19.50;75.00;;;;;;5082230;28;20025;-86
2023/07/23 05:15:12;;;;;;;14.85;3.83;;;19.40;75.60;;;;;;5084685;28;20038;-85
2023/07/23 05:17:39;;;;;;;5.97;2.55;;;19.30;75.70;;;;;;5086041;28;20023;-85
2023/07/23 05:20:08;;;;;;;3.53;2.30;;;19.30;76.30;;;;;;5091812;28;20026;-86
2023/07/23 05:22:37;;;;;;;3.80;2.22;;;19.30;77.00;;;;;;5102552;28;20074;-85
2023/07/23 05:25:03;;;;;;;4.30;2.50;;;19.30;77.10;;;;;;5090306;28;20027;-85
2023/07/23 05:27:30;;;;;;;4.03;2.40;;;19.20;77.10;;;;;;5082600;28;20032;-84
2023/07/23 05:29:55;;;;;;;4.32;2.17;;;19.20;77.10;;;;;;5085028;28;20031;-85
2023/07/23 05:32:21;;;;;;;4.47;1.98;;;19.20;77.50;;;;;;5096660;28;20020;-85
2023/07/23 05:34:47;;;;;;;5.40;2.35;;;19.20;77.80;;;;;;5085346;28;20658;-85
2023/07/23 05:37:12;;;;;;;4.07;2.03;;;19.10;78.40;;;;;;5085563;28;20858;-84
2023/07/23 05:39:38;;;;;;;2.35;1.83;;;19.10;78.70;;;;;;5085216;28;20155;-84
2023/07/23 05:42:04;;;;;;;5.15;2.35;;;19.20;78.40;;;;;;5089889;28;20023;-85
2023/07/23 05:44:31;;;;;;;3.90;2.45;;;19.20;78.20;;;;;;5080721;28;20423;-84
2023/07/23 05:46:56;;;;;;;7.18;2.63;;;19.10;78.80;;;;;;5085445;28;20039;-82
2023/07/23 05:49:22;;;;;;;8.32;2.38;;;19.20;78.90;;;;;;5085611;28;20033;-85
2023/07/23 05:51:48;;;;;;;6.65;2.60;;;19.20;78.50;;;;;;5099164;28;20036;-84
2023/07/23 05:54:13;;;;;;;6.63;3.13;;;19.20;78.70;;;;;;5088853;28;21055;-85
2023/07/23 05:56:39;;;;;;;4.72;2.63;;;19.30;78.00;;;;;;5085660;28;20020;-89
2023/07/23 05:59:05;;;;;;;3.72;2.00;;;19.30;77.60;;;;;;5088837;28;20491;-85
2023/07/23 06:01:30;;;;;;;6.40;2.25;;;19.30;77.30;;;;;;5103166;28;20106;-90
2023/07/23 06:03:56;;;;;;;10.48;2.60;;;19.30;77.40;;;;;;5089224;28;20650;-83
2023/07/23 06:06:22;;;;;;;6.80;2.08;;;19.30;77.40;;;;;;5084026;28;20029;-84
2023/07/23 06:08:48;;;;;;;3.78;1.67;;;19.40;77.70;;;;;;5081287;28;20040;-84
2023/07/23 06:11:13;;;;;;;3.35;2.00;;;19.40;77.60;;;;;;5087839;28;20077;-83
2023/07/23 06:13:39;;;;;;;3.20;2.10;;;19.40;77.30;;;;;;5077052;28;20511;-84
2023/07/23 06:16:04;;;;;;;5.82;2.22;;;19.40;77.20;;;;;;5076878;28;20027;-83
2023/07/23 06:18:30;;;;;;;5.25;2.25;;;19.80;77.30;;;;;;5079117;28;20513;-83
2023/07/23 06:20:56;;;;;;;3.15;2.20;;;19.50;77.00;;;;;;5083226;28;20078;-84
2023/07/23 06:23:21;;;;;;;3.00;2.10;;;19.50;77.60;;;;;;5087869;28;20032;-83
2023/07/23 06:25:54;;;;;;;2.78;1.92;;;19.50;78.10;;;;;;5077695;28;20020;-84
2023/07/23 06:28:20;;;;;;;3.03;2.08;;;19.50;77.60;;;;;;5086719;28;20040;-84
2023/07/23 06:30:45;;;;;;;8.15;2.20;;;19.60;78.20;;;;;;5080410;28;20448;-83
2023/07/23 06:33:11;;;;;;;3.35;1.92;;;19.60;78.90;;;;;;5084218;28;20373;-83
2023/07/23 06:35:37;;;;;;;6.45;1.80;;;19.60;79.10;;;;;;5086505;28;20016;-82
2023/07/23 06:38:04;;;;;;;3.67;2.33;;;19.60;79.60;;;;;;5082540;28;20027;-84
2023/07/23 06:40:29;;;;;;;3.55;2.08;;;19.60;79.50;;;;;;5091970;28;20366;-82
2023/07/23 06:42:55;;;;;;;3.22;2.13;;;19.60;79.90;;;;;;5080061;28;20034;-82
2023/07/23 06:45:21;;;;;;;2.53;1.77;;;19.60;79.80;;;;;;5084505;28;20027;-83
2023/07/23 06:47:46;;;;;;;3.38;2.03;;;19.70;79.90;;;;;;5079242;28;20078;-85
2023/07/23 06:50:12;;;;;;;5.32;2.17;;;19.70;80.00;;;;;;5086620;28;20162;-83
2023/07/23 06:52:37;;;;;;;6.53;2.40;;;19.80;80.10;;;;;;5084753;28;20468;-83
2023/07/23 06:55:03;;;;;;;3.25;1.98;;;19.70;81.00;;;;;;5084809;28;20028;-84
2023/07/23 06:57:29;;;;;;;4.60;2.38;;;19.70;80.60;;;;;;5076291;28;20017;-83
2023/07/23 06:59:54;;;;;;;7.40;2.45;;;19.70;80.80;;;;;;5077701;28;20024;-84
2023/07/23 07:02:20;;;;;;;5.50;2.30;;;19.80;80.60;;;;;;5084009;28;20396;-82
2023/07/23 07:04:45;;;;;;;3.63;2.00;;;19.80;80.50;;;;;;5076337;28;20519;-84
2023/07/23 07:07:11;;;;;;;4.30;2.20;;;19.90;80.70;;;;;;5087475;28;20036;-83
2023/07/23 07:09:37;;;;;;;3.33;2.25;;;19.90;79.90;;;;;;5098474;28;20069;-82
2023/07/23 07:12:02;;;;;;;5.00;2.40;;;19.90;79.90;;;;;;5085524;28;20016;-82
2023/07/23 07:14:28;;;;;;;3.22;2.30;;;19.90;80.00;;;;;;5083278;28;20023;-83
2023/07/23 07:16:53;;;;;;;3.70;1.98;;;19.90;80.00;;;;;;5082133;28;20048;-82
2023/07/23 07:19:19;;;;;;;4.38;2.13;;;19.90;80.00;;;;;;5083717;28;20378;-83
2023/07/23 07:21:45;;;;;;;3.97;2.33;;;20.00;80.00;;;;;;5078971;28;20122;-82
2023/07/23 07:24:10;;;;;;;5.82;2.63;;;20.00;79.90;;;;;;5082651;28;20075;-82
2023/07/23 07:26:36;;;;;;;3.83;2.03;;;20.00;80.00;;;;;;5082485;28;20040;-83
2023/07/23 07:29:02;;;;;;;2.95;2.20;;;20.00;80.70;;;;;;5080171;28;20040;-82
2023/07/23 07:31:28;;;;;;;8.50;3.03;;;20.00;80.50;;;;;;5081293;28;20027;-82
2023/07/23 07:33:53;;;;;;;6.78;2.25;;;20.10;80.80;;;;;;5093274;28;20535;-83
2023/07/23 07:36:19;;;;;;;4.28;2.35;;;20.10;80.70;;;;;;5090935;28;20024;-83
2023/07/23 07:38:44;;;;;;;1.70;1.27;;;20.20;81.30;;;;;;5083421;28;20111;-84
2023/07/23 07:41:10;;;;;;;2.60;1.80;;;20.20;80.90;;;;;;5093095;28;20025;-85
2023/07/23 07:43:36;;;;;;;4.88;2.45;;;20.20;80.30;;;;;;5081314;28;20027;-83
2023/07/23 07:46:03;;;;;;;8.93;2.50;;;20.20;80.40;;;;;;5083583;28;20035;-83
2023/07/23 07:48:30;;;;;;;1.65;1.52;;;20.30;80.70;;;;;;5097082;28;20564;-84
2023/07/23 07:51:04;;;;;;;3.30;2.33;;;20.30;80.60;;;;;;5082500;28;20032;-84
2023/07/23 07:53:30;;;;;;;9.90;2.80;;;20.20;80.80;;;;;;5083886;28;20077;-83
2023/07/23 07:55:56;;;;;;;4.22;2.47;;;20.20;81.60;;;;;;5099687;28;20028;-83
2023/07/23 07:58:25;;;;;;;3.20;2.20;;;20.20;80.80;;;;;;5074650;28;20008;-83
2023/07/23 08:00:54;;;;;;;4.63;2.90;;;20.30;80.70;;;;;;5078615;28;20028;-84
2023/07/23 08:03:24;;;;;;;5.20;2.20;;;20.30;81.90;;;;;;5080479;28;20578;-84
2023/07/23 08:05:50;;;;;;;3.22;2.03;;;20.30;80.80;;;;;;5078160;28;20113;-84
2023/07/23 08:08:17;;;;;;;2.95;2.28;;;20.40;80.90;;;;;;5078967;28;20043;-85
2023/07/23 08:10:45;;;;;;;5.32;2.00;;;20.40;80.50;;;;;;5080542;28;20008;-81
2023/07/23 08:13:13;;;;;;;3.33;1.92;;;20.50;80.50;;;;;;5079039;28;20488;-84
2023/07/23 08:15:39;;;;;;;2.85;1.88;;;20.50;80.50;;;;;;5079493;28;20020;-85
2023/07/23 08:18:05;;;;;;;10.40;1.58;;;20.60;80.50;;;;;;5080161;28;20535;-84
2023/07/23 08:20:34;;;;;;;2.72;1.65;;;20.60;80.00;;;;;;5078616;28;20016;-83
2023/07/23 08:23:01;;;;;;;4.13;2.22;;;20.60;79.80;;;;;;5076239;28;20385;-85
2023/07/23 08:25:28;;;;;;;3.95;2.10;;;20.60;79.80;;;;;;5084225;28;20218;-83
2023/07/23 08:28:00;;;;;;;12.25;2.05;;;20.70;80.00;;;;;;5096476;28;20773;-86
2023/07/23 08:30:27;;;;;;;2.28;2.00;;;20.60;79.90;;;;;;5078111;28;20032;-83
2023/07/23 08:32:55;;;;;;;4.72;2.22;;;20.70;79.30;;;;;;5097309;28;20952;-83
2023/07/23 08:35:22;;;;;;;8.15;2.03;;;20.70;79.20;;;;;;5083474;28;20023;-83
2023/07/23 08:37:48;;;;;;;6.15;2.35;;;20.80;78.80;;;;;;5081034;28;20078;-83
2023/07/23 08:40:15;;;;;;;6.22;2.17;;;20.80;77.80;;;;;;5082113;28;20055;-84
2023/07/23 08:42:55;;;;;;;4.05;2.33;;;20.80;79.10;;;;;;5092741;28;20017;-83
2023/07/23 08:45:40;;;;;;;3.15;1.95;;;20.80;79.20;;;;;;5076457;28;20083;-84
2023/07/23 08:48:15;;;;;;;4.95;1.95;;;20.80;78.90;;;;;;5078544;28;20160;-84
2023/07/23 08:50:44;;;;;;;3.53;2.22;;;20.80;79.70;;;;;;5098487;28;20028;-84
2023/07/23 08:53:11;;;;;;;2.45;1.77;;;20.80;80.10;;;;;;5085517;28;20382;-84
2023/07/23 08:55:40;;;;;;;2.45;1.80;;;20.90;79.90;;;;;;5088451;28;20098;-83
2023/07/23 08:58:06;;;;;;;2.40;1.50;;;20.90;78.70;;;;;;5089003;28;20035;-84
2023/07/23 09:00:33;;;;;;;5.05;1.83;;;21.00;77.50;;;;;;5092368;27;20031;-83
2023/07/23 09:03:03;;;;;;;4.07;1.70;;;21.00;76.90;;;;;;5084540;28;20111;-84
2023/07/23 09:05:31;;;;;;;2.75;1.80;;;21.00;76.60;;;;;;5083813;28;20380;-85
2023/07/23 09:07:57;;;;;;;4.38;1.98;;;21.10;76.20;;;;;;5096503;27;20116;-84
2023/07/23 09:10:25;;;;;;;2.67;1.75;;;21.10;76.40;;;;;;5083347;28;20024;-85
2023/07/23 09:12:56;;;;;;;2.55;1.77;;;21.10;75.40;;;;;;5059714;28;20497;-84
2023/07/23 09:15:22;;;;;;;3.50;1.73;;;21.10;74.00;;;;;;5082616;28;20480;-84
2023/07/23 09:17:51;;;;;;;4.80;1.17;;;21.20;73.80;;;;;;5078148;28;20034;-84
2023/07/23 09:20:18;;;;;;;1.50;1.35;;;21.10;75.20;;;;;;5084112;28;20063;-85
2023/07/23 09:22:47;;;;;;;5.28;1.52;;;21.20;75.00;;;;;;5081405;28;20025;-83
2023/07/23 09:25:15;;;;;;;1.60;1.50;;;21.20;75.70;;;;;;5082944;28;20016;-87
2023/07/23 09:27:42;;;;;;;2.83;1.42;;;21.20;74.90;;;;;;5087724;28;20048;-84
2023/07/23 09:30:17;;;;;;;13.52;2.10;;;21.30;73.90;;;;;;5076433;28;20035;-84
2023/07/23 09:32:43;;;;;;;2.55;1.60;;;21.30;73.90;;;;;;5109301;27;20435;-86
2023/07/23 09:35:08;;;;;;;8.38;1.80;;;21.30;74.10;;;;;;5075235;28;20021;-83
2023/07/23 09:37:35;;;;;;;3.55;2.00;;;21.20;73.90;;;;;;5087169;28;20077;-86
2023/07/23 09:40:01;;;;;;;6.95;1.50;;;21.20;74.30;;;;;;5080096;28;20036;-85
2023/07/23 09:42:27;;;;;;;2.47;1.90;;;21.30;74.70;;;;;;5086010;28;20024;-83
2023/07/23 09:44:53;;;;;;;14.07;2.08;;;21.40;73.60;;;;;;5077096;28;20542;-84
2023/07/23 09:47:27;;;;;;;3.90;1.83;;;21.40;73.50;;;;;;5079563;28;20036;-83
2023/07/23 09:49:53;;;;;;;2.05;1.30;;;21.50;72.10;;;;;;5083089;28;20543;-84
2023/07/23 09:52:22;;;;;;;3.03;2.00;;;21.50;73.00;;;;;;5088058;28;20103;-84
2023/07/23 09:54:49;;;;;;;2.33;1.73;;;21.50;71.80;;;;;;5080849;28;20361;-85
2023/07/23 09:57:15;;;;;;;4.45;2.08;;;21.40;71.90;;;;;;5084604;28;20032;-84
2023/07/23 09:59:42;;;;;;;3.53;2.05;;;21.30;72.80;;;;;;5115969;27;20024;-86
2023/07/23 10:02:09;;;;;;;6.18;2.80;;;21.30;72.50;;;;;;5079806;28;20028;-84
2023/07/23 10:04:37;;;;;;;4.68;1.75;;;21.40;73.40;;;;;;5111134;27;20024;-84
2023/07/23 10:07:04;;;;;;;51.10;22.98;;;21.40;72.70;;;;;;5082309;28;20139;-86
2023/07/23 10:09:32;;;;;;;9.02;4.97;;;21.50;71.30;;;;;;5086009;28;20027;-85
2023/07/23 10:11:58;;;;;;;6.50;2.85;;;21.60;72.40;;;;;;5084844;28;20090;-85
2023/07/23 10:14:23;;;;;;;2.90;2.13;;;21.70;72.50;;;;;;5082373;28;20029;-83
2023/07/23 10:16:52;;;;;;;6.68;2.30;;;21.80;72.20;;;;;;5084443;28;20044;-84
2023/07/23 10:19:19;;;;;;;1.85;1.45;;;21.70;71.90;;;;;;5094199;28;20063;-87
2023/07/23 10:21:51;;;;;;;3.03;1.70;;;21.70;70.90;;;;;;5089021;28;20537;-84
2023/07/23 10:24:17;;;;;;;3.58;2.42;;;21.70;71.30;;;;;;5087066;28;20032;-85
2023/07/23 10:26:47;;;;;;;5.07;2.40;;;21.60;71.20;;;;;;5090054;28;20449;-85
2023/07/23 10:29:12;;;;;;;5.80;1.80;;;21.50;72.20;;;;;;5083121;28;20696;-85
2023/07/23 10:31:39;;;;;;;3.35;2.03;;;21.50;72.60;;;;;;5086349;28;20032;-86
2023/07/23 10:34:26;;;;;;;5.82;2.08;;;21.50;72.40;;;;;;5078512;28;20047;-84
2023/07/23 10:37:14;;;;;;;5.05;2.33;;;21.50;73.00;;;;;;5083183;28;20032;-85
2023/07/23 10:39:52;;;;;;;4.70;1.50;;;21.50;73.30;;;;;;5086226;28;20028;-83
2023/07/23 10:42:40;;;;;;;3.92;2.35;;;21.90;72.20;;;;;;5084820;28;20112;-84
2023/07/23 10:45:21;;;;;;;4.90;2.15;;;21.90;71.50;;;;;;5084024;28;20524;-85
2023/07/23 10:47:50;;;;;;;2.53;1.70;;;22.00;72.40;;;;;;5081452;28;20111;-85
2023/07/23 10:50:19;;;;;;;3.78;2.10;;;21.90;73.00;;;;;;5102525;27;20029;-83
2023/07/23 10:52:50;;;;;;;10.63;2.60;;;21.90;72.60;;;;;;5083497;28;20035;-85
2023/07/23 10:55:32;;;;;;;4.07;2.58;;;22.00;73.80;;;;;;5083560;28;20032;-86
2023/07/23 10:58:02;;;;;;;8.68;2.38;;;22.00;73.50;;;;;;5083065;28;20032;-86
2023/07/23 11:00:30;;;;;;;5.03;2.63;;;22.00;72.50;;;;;;5085675;28;20127;-87
2023/07/23 11:02:56;;;;;;;3.63;2.53;;;22.00;74.00;;;;;;5096610;28;20692;-85
2023/07/23 11:05:25;;;;;;;4.07;2.20;;;22.00;73.50;;;;;;5086208;28;20032;-85
2023/07/23 11:08:14;;;;;;;7.18;2.53;;;22.00;74.50;;;;;;5082026;28;20055;-84
2023/07/23 11:10:59;;;;;;;5.22;3.00;;;22.00;74.50;;;;;;5084425;28;20040;-85
2023/07/23 11:13:26;;;;;;;3.90;2.15;;;22.00;73.50;;;;;;5082578;28;20485;-85
2023/07/23 11:15:53;;;;;;;8.05;2.67;;;21.90;72.30;;;;;;5087647;28;20085;-86
2023/07/23 11:18:19;;;;;;;3.72;2.40;;;22.00;72.40;;;;;;5080464;28;20028;-83
2023/07/23 11:20:46;;;;;;;5.18;2.85;;;22.00;73.20;;;;;;5098185;27;20020;-84
2023/07/23 11:23:13;;;;;;;6.05;3.10;;;22.10;71.90;;;;;;5081694;28;20032;-84
2023/07/23 11:25:39;;;;;;;5.32;2.92;;;22.00;72.10;;;;;;5082322;28;20048;-83
2023/07/23 11:28:06;;;;;;;5.45;3.05;;;22.00;71.80;;;;;;5096424;28;20028;-87
2023/07/23 11:30:32;;;;;;;8.00;2.97;;;21.90;72.10;;;;;;5082520;28;20077;-87
2023/07/23 11:33:02;;;;;;;7.60;3.00;;;21.80;73.10;;;;;;5082033;28;20476;-81
2023/07/23 11:35:29;;;;;;;6.18;2.65;;;21.60;73.50;;;;;;5080861;28;20021;-81
2023/07/23 11:37:54;;;;;;;4.22;2.65;;;21.50;74.20;;;;;;5086716;28;20040;-82
2023/07/23 11:40:23;;;;;;;7.32;3.25;;;21.40;74.60;;;;;;5082320;28;20032;-85
2023/07/23 11:42:51;;;;;;;8.20;3.60;;;21.40;75.00;;;;;;5082987;28;20023;-86
2023/07/23 11:45:16;;;;;;;11.13;3.30;;;21.40;75.20;;;;;;5082055;28;20039;-84
2023/07/23 11:47:50;;;;;;;3.58;1.55;;;21.30;75.30;;;;;;5083665;28;20032;-82
2023/07/23 11:50:16;;;;;;;6.90;3.17;;;21.30;75.50;;;;;;5078849;28;20029;-83
2023/07/23 11:52:42;;;;;;;7.35;3.33;;;21.30;75.70;;;;;;5082489;28;20020;-83
2023/07/23 11:55:27;;;;;;;8.15;3.72;;;21.20;75.60;;;;;;5094445;28;20542;-84
2023/07/23 11:57:58;;;;;;;8.63;3.15;;;21.20;75.80;;;;;;5080367;28;20035;-84
2023/07/23 12:00:35;;;;;;;7.78;3.38;;;21.20;75.90;;;;;;5085541;28;20119;-84
2023/07/23 12:03:05;;;;;;;5.55;2.97;;;21.20;76.00;;;;;;5081652;28;20024;-85
2023/07/23 12:05:31;;;;;;;7.97;3.40;;;21.20;76.10;;;;;;5078275;28;20028;-84
2023/07/23 12:07:56;;;;;;;7.90;3.05;;;21.20;76.10;;;;;;5082473;28;20061;-83
2023/07/23 12:10:25;;;;;;;11.38;3.25;;;21.20;76.20;;;;;;5076790;28;20033;-82
2023/07/23 12:12:54;;;;;;;7.45;3.15;;;21.20;76.30;;;;;;5073964;28;20070;-82
2023/07/23 12:15:19;;;;;;;9.90;3.45;;;21.20;76.30;;;;;;5108959;27;20036;-81
2023/07/23 12:17:45;;;;;;;4.75;2.85;;;21.20;76.50;;;;;;5088570;28;20020;-82
2023/07/23 12:20:16;;;;;;;5.10;2.15;;;21.20;76.50;;;;;;5079838;28;20145;-82
2023/07/23 12:22:56;;;;;;;6.10;2.63;;;21.20;76.60;;;;;;5077887;28;20078;-82
2023/07/23 12:25:24;;;;;;;5.47;2.50;;;21.20;76.80;;;;;;5076712;28;20020;-82
2023/07/23 12:27:53;;;;;;;3.78;1.73;;;21.20;76.80;;;;;;5089144;28;20486;-83
2023/07/23 12:30:19;;;;;;;6.75;2.50;;;21.20;76.80;;;;;;5083764;28;20024;-83
2023/07/23 12:32:45;;;;;;;7.15;3.28;;;21.20;76.80;;;;;;5079735;28;20023;-83
2023/07/23 12:35:11;;;;;;;6.10;2.08;;;21.20;76.80;;;;;;5083743;28;20515;-81
2023/07/23 12:37:36;;;;;;;5.72;2.95;;;21.20;77.00;;;;;;5084798;28;20028;-81
2023/07/23 12:40:04;;;;;;;4.38;2.33;;;21.20;77.20;;;;;;5087155;28;20023;-82
2023/07/23 12:42:33;;;;;;;13.18;3.50;;;21.20;77.20;;;;;;5082528;28;20516;-83
2023/07/23 12:45:00;;;;;;;6.13;3.30;;;21.20;77.10;;;;;;5086672;28;20031;-83